createdAt,value
2022-10-07T00:00:56.136Z,9.67
2022-10-07T00:03:25.840Z,9.72
2022-10-07T00:06:05.216Z,9.70
2022-10-07T00:08:32.221Z,9.67
2022-10-07T00:11:04.917Z,9.69
2022-10-07T00:13:32.348Z,9.68
2022-10-07T00:16:07.828Z,9.65
2022-10-07T00:18:35.911Z,9.57
2022-10-07T00:21:08.105Z,9.48
2022-10-07T00:23:35.827Z,9.44
2022-10-07T00:26:04.342Z,9.32
2022-10-07T00:28:31.801Z,9.27
2022-10-07T00:31:10.785Z,9.18
2022-10-07T00:33:39.849Z,9.15
2022-10-07T00:36:09.847Z,9.11
2022-10-07T00:38:36.758Z,9.08
2022-10-07T00:41:04.193Z,9.03
2022-10-07T00:43:32.235Z,9.01
2022-10-07T00:46:08.287Z,9.07
2022-10-07T00:48:36.839Z,9.08
2022-10-07T00:51:04.060Z,9.05
2022-10-07T00:53:33.260Z,8.96
2022-10-07T00:56:04.517Z,8.93
2022-10-07T00:58:33.168Z,8.87
2022-10-07T01:01:00.511Z,8.84
2022-10-07T01:03:28.302Z,8.86
2022-10-07T01:05:55.371Z,8.88
2022-10-07T01:08:23.364Z,8.92
2022-10-07T01:11:34.194Z,8.89
2022-10-07T01:14:08.057Z,8.89
2022-10-07T01:16:51.101Z,8.92
2022-10-07T01:19:44.448Z,8.92
2022-10-07T01:22:46.651Z,8.97
2022-10-07T01:25:28.475Z,8.97
2022-10-07T01:28:01.116Z,8.95
2022-10-07T01:30:32.079Z,8.89
2022-10-07T01:33:05.302Z,8.81
2022-10-07T01:35:35.752Z,8.75
2022-10-07T01:38:05.732Z,8.72
2022-10-07T01:40:54.597Z,8.70
2022-10-07T01:43:22.567Z,8.63
2022-10-07T01:45:52.237Z,8.65
2022-10-07T01:48:19.203Z,8.72
2022-10-07T01:50:47.388Z,8.70
2022-10-07T01:53:32.576Z,8.60
2022-10-07T01:56:31.784Z,8.51
2022-10-07T01:59:25.595Z,8.56
2022-10-07T02:02:04.212Z,8.53
2022-10-07T02:04:59.318Z,8.46
2022-10-07T02:07:51.443Z,8.41
2022-10-07T02:10:26.960Z,8.41
2022-10-07T02:13:14.175Z,8.41
2022-10-07T02:16:26.235Z,8.42
2022-10-07T02:18:54.190Z,8.42
2022-10-07T02:21:25.542Z,8.49
2022-10-07T02:23:55.036Z,8.61
2022-10-07T02:26:23.448Z,8.68
2022-10-07T02:28:53.036Z,8.65
2022-10-07T02:31:23.160Z,8.58
2022-10-07T02:33:54.032Z,8.54
2022-10-07T02:36:25.649Z,8.52
2022-10-07T02:38:53.339Z,8.53
2022-10-07T02:41:44.245Z,8.64
2022-10-07T02:44:20.446Z,8.65
2022-10-07T02:46:58.643Z,8.71
2022-10-07T02:49:26.830Z,8.72
2022-10-07T02:52:00.360Z,8.72
2022-10-07T02:54:33.403Z,8.71
2022-10-07T02:57:02.867Z,8.74
2022-10-07T02:59:31.326Z,8.78
2022-10-07T03:02:00.787Z,8.83
2022-10-07T03:04:27.898Z,8.83
2022-10-07T03:06:55.774Z,8.83
2022-10-07T03:09:24.987Z,8.80
2022-10-07T03:11:51.896Z,8.77
2022-10-07T03:14:19.160Z,8.67
2022-10-07T03:16:46.584Z,8.64
2022-10-07T03:19:13.467Z,8.59
2022-10-07T03:21:47.663Z,8.46
2022-10-07T03:24:14.666Z,8.40
2022-10-07T03:26:45.453Z,8.44
2022-10-07T03:29:14.074Z,8.43
2022-10-07T03:31:42.449Z,8.37
2022-10-07T03:34:09.754Z,8.37
2022-10-07T03:36:37.336Z,8.36
2022-10-07T03:39:10.801Z,8.30
2022-10-07T03:41:37.842Z,8.24
2022-10-07T03:44:05.760Z,8.17
2022-10-07T03:46:33.688Z,8.11
2022-10-07T03:49:01.491Z,8.14
2022-10-07T03:51:29.419Z,8.22
2022-10-07T03:53:58.256Z,8.16
2022-10-07T03:56:29.630Z,8.14
2022-10-07T03:58:56.636Z,8.11
2022-10-07T04:01:24.996Z,8.06
2022-10-07T04:03:56.432Z,7.99
2022-10-07T04:06:25.678Z,8.00
2022-10-07T04:08:53.930Z,7.98
2022-10-07T04:11:22.002Z,7.98
2022-10-07T04:13:51.895Z,7.99
2022-10-07T04:16:20.086Z,8.01
2022-10-07T04:18:48.092Z,8.06
2022-10-07T04:21:15.740Z,8.07
2022-10-07T04:23:42.791Z,8.12
2022-10-07T04:26:11.315Z,8.09
2022-10-07T04:28:45.805Z,8.09
2022-10-07T04:31:18.013Z,8.15
2022-10-07T04:33:47.867Z,8.16
2022-10-07T04:36:20.576Z,8.13
2022-10-07T04:38:53.182Z,8.11
2022-10-07T04:41:26.903Z,8.19
2022-10-07T04:43:57.842Z,8.19
2022-10-07T04:46:28.719Z,8.24
2022-10-07T04:49:05.223Z,8.33
2022-10-07T04:51:32.588Z,8.33
2022-10-07T04:54:01.168Z,8.32
2022-10-07T04:56:37.811Z,8.35
2022-10-07T04:59:07.731Z,8.39
2022-10-07T05:01:39.650Z,8.40
2022-10-07T05:04:09.140Z,8.46
2022-10-07T05:06:36.056Z,8.52
2022-10-07T05:09:04.503Z,8.64
2022-10-07T05:11:34.800Z,8.90
2022-10-07T05:14:09.229Z,9.18
2022-10-07T05:16:37.066Z,9.27
2022-10-07T05:19:05.407Z,9.22
2022-10-07T05:21:33.905Z,9.29
2022-10-07T05:24:02.017Z,9.37
2022-10-07T05:26:34.437Z,9.44
2022-10-07T05:29:03.535Z,9.51
2022-10-07T05:31:37.585Z,9.59
2022-10-07T05:34:06.180Z,9.63
2022-10-07T05:36:34.059Z,9.64
2022-10-07T05:39:05.608Z,9.59
2022-10-07T05:41:45.587Z,9.46
2022-10-07T05:44:18.012Z,9.42
2022-10-07T05:46:47.179Z,9.49
2022-10-07T05:49:15.900Z,9.57
2022-10-07T05:51:43.086Z,9.60
2022-10-07T05:54:10.109Z,9.53
2022-10-07T05:56:41.375Z,9.72
2022-10-07T05:59:08.861Z,9.63
2022-10-07T06:01:37.768Z,9.70
2022-10-07T06:04:11.827Z,9.67
2022-10-07T06:06:41.662Z,9.62
2022-10-07T06:09:31.203Z,9.73
2022-10-07T06:12:19.925Z,9.72
2022-10-07T06:14:48.461Z,9.89
2022-10-07T06:17:17.583Z,9.91
2022-10-07T06:19:49.108Z,9.79
2022-10-07T06:22:18.529Z,9.82
2022-10-07T06:24:45.815Z,9.96
2022-10-07T06:27:12.919Z,10.12
2022-10-07T06:29:41.093Z,10.26
2022-10-07T06:32:08.620Z,10.32
2022-10-07T06:34:35.780Z,10.45
2022-10-07T06:37:02.844Z,10.49
2022-10-07T06:39:30.375Z,10.58
2022-10-07T06:42:00.176Z,10.54
2022-10-07T06:44:44.103Z,10.70
2022-10-07T06:47:15.941Z,10.72
2022-10-07T06:49:45.536Z,10.78
2022-10-07T06:52:13.134Z,10.79
2022-10-07T06:54:41.363Z,10.82
2022-10-07T06:57:33.193Z,10.83
2022-10-07T06:59:58.160Z,10.82
2022-10-07T07:02:28.215Z,10.99
2022-10-07T07:04:57.665Z,11.14
2022-10-07T07:07:26.337Z,11.28
2022-10-07T07:09:53.853Z,11.45
2022-10-07T07:12:25.598Z,11.49
2022-10-07T07:14:55.446Z,11.21
2022-10-07T07:17:22.421Z,11.00
2022-10-07T07:19:49.452Z,10.98
2022-10-07T07:22:17.660Z,10.99
2022-10-07T07:24:44.673Z,11.07
2022-10-07T07:27:12.790Z,11.05
2022-10-07T07:29:39.780Z,11.00
2022-10-07T07:32:08.349Z,10.97
2022-10-07T07:34:39.288Z,10.86
2022-10-07T07:37:08.583Z,10.75
2022-10-07T07:39:42.806Z,10.55
2022-10-07T07:42:14.204Z,10.59
2022-10-07T07:44:44.408Z,10.50
2022-10-07T07:47:17.254Z,10.49
2022-10-07T07:49:46.140Z,10.49
2022-10-07T07:52:20.600Z,10.56
2022-10-07T07:54:51.931Z,10.57
2022-10-07T07:57:19.723Z,10.54
2022-10-07T07:59:49.920Z,10.55
2022-10-07T08:02:18.634Z,10.56
2022-10-07T08:04:51.646Z,10.66
2022-10-07T08:07:18.683Z,10.62
2022-10-07T08:09:47.656Z,10.72
2022-10-07T08:12:15.152Z,10.76
2022-10-07T08:14:45.964Z,10.78
2022-10-07T08:17:16.180Z,10.68
2022-10-07T08:19:43.389Z,10.79
2022-10-07T08:22:11.812Z,10.80
2022-10-07T08:24:39.460Z,10.87
2022-10-07T08:27:08.909Z,10.88
2022-10-07T08:29:36.019Z,11.02
2022-10-07T08:32:03.383Z,11.18
2022-10-07T08:34:30.419Z,11.04
2022-10-07T08:36:57.381Z,11.01
2022-10-07T08:39:26.764Z,10.92
2022-10-07T08:42:08.803Z,10.93
2022-10-07T08:44:42.104Z,10.93
2022-10-07T08:47:30.513Z,11.07
2022-10-07T08:50:07.943Z,11.05
2022-10-07T08:52:44.605Z,10.91
2022-10-07T08:55:11.757Z,10.95
2022-10-07T08:57:52.510Z,11.03
2022-10-07T09:00:21.521Z,11.22
2022-10-07T09:03:07.624Z,11.47
2022-10-07T09:05:40.570Z,11.44
2022-10-07T09:08:14.929Z,11.52
2022-10-07T09:10:49.743Z,11.68
2022-10-07T09:13:26.316Z,11.90
2022-10-07T09:16:09.734Z,12.77
2022-10-07T09:18:42.991Z,13.31
2022-10-07T09:21:18.990Z,13.66
2022-10-07T09:23:46.951Z,12.68
2022-10-07T09:26:16.301Z,12.39
2022-10-07T09:28:44.092Z,12.20
2022-10-07T09:31:15.686Z,11.99
2022-10-07T09:33:46.214Z,11.91
2022-10-07T09:36:18.352Z,12.09
2022-10-07T09:38:47.933Z,13.08
2022-10-07T09:41:32.345Z,13.69
2022-10-07T09:44:00.540Z,13.01
2022-10-07T09:46:40.465Z,12.55
2022-10-07T09:49:07.972Z,12.70
2022-10-07T09:51:35.496Z,12.43
2022-10-07T09:54:08.807Z,12.24
2022-10-07T09:56:44.844Z,12.18
2022-10-07T09:59:21.404Z,12.35
2022-10-07T10:02:14.575Z,12.47
2022-10-07T10:04:53.312Z,12.38
2022-10-07T10:07:25.135Z,12.27
2022-10-07T10:09:54.137Z,12.13
2022-10-07T10:12:23.846Z,12.01
2022-10-07T10:14:53.094Z,12.05
2022-10-07T10:17:24.431Z,12.04
2022-10-07T10:19:51.527Z,11.93
2022-10-07T10:22:30.387Z,11.81
2022-10-07T10:25:15.865Z,11.84
2022-10-07T10:27:55.460Z,11.88
2022-10-07T10:30:23.460Z,12.00
2022-10-07T10:33:05.721Z,11.95
2022-10-07T10:35:41.964Z,11.98
2022-10-07T10:38:18.858Z,12.04
2022-10-07T10:40:49.293Z,12.14
2022-10-07T10:43:25.864Z,12.71
2022-10-07T10:46:27.602Z,12.43
2022-10-07T10:49:16.401Z,12.35
2022-10-07T10:51:59.631Z,12.79
2022-10-07T10:54:49.305Z,12.80
2022-10-07T10:57:42.652Z,12.90
2022-10-07T11:00:13.927Z,12.81
2022-10-07T11:02:53.073Z,12.99
2022-10-07T11:05:32.221Z,13.34
2022-10-07T11:08:08.008Z,13.19
2022-10-07T11:10:37.894Z,13.08
2022-10-07T11:13:15.793Z,13.31
2022-10-07T11:16:18.140Z,13.30
2022-10-07T11:18:58.432Z,13.15
2022-10-07T11:21:30.788Z,13.14
2022-10-07T11:24:18.088Z,13.22
2022-10-07T11:26:52.365Z,13.74
2022-10-07T11:29:28.574Z,14.64
2022-10-07T11:32:08.379Z,13.91
2022-10-07T11:34:44.104Z,13.69
2022-10-07T11:37:30.062Z,13.68
2022-10-07T11:39:57.399Z,13.50
2022-10-07T11:42:29.147Z,13.66
2022-10-07T11:45:02.800Z,13.74
2022-10-07T11:47:38.371Z,13.37
2022-10-07T11:50:12.986Z,13.52
2022-10-07T11:52:44.314Z,13.84
2022-10-07T11:55:25.067Z,13.09
2022-10-07T11:57:56.192Z,12.93
2022-10-07T12:00:25.927Z,12.95
2022-10-07T12:02:55.288Z,12.71
2022-10-07T12:05:42.679Z,12.45
2022-10-07T12:08:34.406Z,12.30
2022-10-07T12:11:14.705Z,12.39
2022-10-07T12:13:46.246Z,12.56
2022-10-07T12:16:31.634Z,12.63
2022-10-07T12:19:10.362Z,12.53
2022-10-07T12:21:59.606Z,12.40
2022-10-07T12:24:28.216Z,12.35
2022-10-07T12:27:17.756Z,12.44
2022-10-07T12:29:50.930Z,12.41
2022-10-07T12:32:39.474Z,12.40
2022-10-07T12:35:36.259Z,12.37
2022-10-07T12:38:18.519Z,12.37
2022-10-07T12:41:00.545Z,12.29
2022-10-07T12:43:36.913Z,12.27
2022-10-07T12:46:06.435Z,12.30
2022-10-07T12:48:39.558Z,12.19
2022-10-07T12:51:19.522Z,12.16
2022-10-07T12:53:47.740Z,12.03
2022-10-07T12:56:25.381Z,12.03
2022-10-07T12:59:51.072Z,11.95
2022-10-07T13:02:37.340Z,11.91
2022-10-07T13:05:43.720Z,11.80
2022-10-07T13:08:23.103Z,11.76
2022-10-07T13:11:17.755Z,11.77
2022-10-07T13:14:09.009Z,11.75
2022-10-07T13:16:39.052Z,11.77
2022-10-07T13:19:27.961Z,11.74
2022-10-07T13:22:13.906Z,11.70
2022-10-07T13:24:54.232Z,11.67
2022-10-07T13:27:28.714Z,11.58
2022-10-07T13:29:57.632Z,11.61
2022-10-07T13:32:32.507Z,11.49
2022-10-07T13:35:01.453Z,11.53
2022-10-07T13:37:37.818Z,11.53
2022-10-07T13:40:28.348Z,11.51
2022-10-07T13:42:59.342Z,11.49
2022-10-07T13:45:27.858Z,11.43
2022-10-07T13:47:57.321Z,11.45
2022-10-07T13:50:34.348Z,11.38
2022-10-07T13:53:04.170Z,11.33
2022-10-07T13:55:37.804Z,11.33
2022-10-07T13:58:06.897Z,11.30
2022-10-07T14:00:36.141Z,11.24
2022-10-07T14:03:13.383Z,11.23
2022-10-07T14:05:52.014Z,11.27
2022-10-07T14:08:25.093Z,11.20
2022-10-07T14:11:03.628Z,11.12
2022-10-07T14:13:32.324Z,11.09
2022-10-07T14:15:59.767Z,11.14
2022-10-07T14:18:29.832Z,11.04
2022-10-07T14:21:08.374Z,11.08
2022-10-07T14:23:37.825Z,11.02
2022-10-07T14:26:07.109Z,11.02
2022-10-07T14:28:35.511Z,11.01
2022-10-07T14:31:27.143Z,10.99
2022-10-07T14:34:16.059Z,10.92
2022-10-07T14:37:02.139Z,10.92
2022-10-07T14:39:42.664Z,10.83
2022-10-07T14:42:22.112Z,10.77
2022-10-07T14:44:51.055Z,10.71
2022-10-07T14:47:21.173Z,10.70
2022-10-07T14:49:48.811Z,10.61
2022-10-07T14:52:29.095Z,10.71
2022-10-07T14:54:57.702Z,10.65
2022-10-07T14:57:27.320Z,10.67
2022-10-07T14:59:54.954Z,10.63
2022-10-07T15:02:22.451Z,10.66
2022-10-07T15:04:49.541Z,10.62
2022-10-07T15:07:18.314Z,10.61
2022-10-07T15:09:46.556Z,10.61
2022-10-07T15:12:16.610Z,10.51
2022-10-07T15:14:43.770Z,10.48
2022-10-07T15:17:15.009Z,10.51
2022-10-07T15:19:42.086Z,10.46
2022-10-07T15:22:09.094Z,10.46
2022-10-07T15:24:36.056Z,10.40
2022-10-07T15:27:03.269Z,10.31
2022-10-07T15:29:32.567Z,10.24
2022-10-07T15:32:02.440Z,10.21
2022-10-07T15:34:36.335Z,10.17
2022-10-07T15:37:03.347Z,10.13
2022-10-07T15:39:30.349Z,10.11
2022-10-07T15:41:57.275Z,10.08
2022-10-07T15:44:24.299Z,9.99
2022-10-07T15:46:54.010Z,10.05
2022-10-07T15:49:21.123Z,10.04
2022-10-07T15:51:49.088Z,9.93
2022-10-07T15:54:16.649Z,9.93
2022-10-07T15:56:48.717Z,9.87
2022-10-07T15:59:16.441Z,9.79
2022-10-07T16:01:46.635Z,9.77
2022-10-07T16:04:13.837Z,9.73
2022-10-07T16:06:40.820Z,9.70
2022-10-07T16:09:07.815Z,9.68
2022-10-07T16:11:36.409Z,9.68
2022-10-07T16:14:06.982Z,9.68
2022-10-07T16:16:34.076Z,9.63
2022-10-07T16:19:04.820Z,9.59
2022-10-07T16:21:37.123Z,9.49
2022-10-07T16:24:22.016Z,9.43
2022-10-07T16:26:57.333Z,9.39
2022-10-07T16:29:43.281Z,9.36
2022-10-07T16:32:11.639Z,9.38
2022-10-07T16:34:44.508Z,9.37
2022-10-07T16:37:12.368Z,9.31
2022-10-07T16:39:39.634Z,9.21
2022-10-07T16:42:06.797Z,9.17
2022-10-07T16:44:33.847Z,9.18
2022-10-07T16:47:01.521Z,9.24
2022-10-07T16:49:30.371Z,9.33
2022-10-07T16:51:58.074Z,9.35
2022-10-07T16:54:35.648Z,9.33
2022-10-07T16:57:06.021Z,9.33
2022-10-07T16:59:33.207Z,9.21
2022-10-07T17:02:03.582Z,9.21
2022-10-07T17:04:31.527Z,9.26
2022-10-07T17:07:02.149Z,9.20
2022-10-07T17:09:33.532Z,9.01
2022-10-07T17:12:07.699Z,8.94
2022-10-07T17:14:37.269Z,8.79
2022-10-07T17:17:05.454Z,8.73
2022-10-07T17:19:33.834Z,8.61
2022-10-07T17:22:09.522Z,8.65
2022-10-07T17:24:36.766Z,8.51
2022-10-07T17:27:13.444Z,8.56
2022-10-07T17:29:42.642Z,8.49
2022-10-07T17:32:10.565Z,8.36
2022-10-07T17:34:45.301Z,8.38
2022-10-07T17:37:13.310Z,8.38
2022-10-07T17:39:40.419Z,8.24
2022-10-07T17:42:07.427Z,8.24
2022-10-07T17:44:34.593Z,8.23
2022-10-07T17:47:14.036Z,8.07
2022-10-07T17:49:41.145Z,8.01
2022-10-07T17:52:08.137Z,7.80
2022-10-07T17:54:36.102Z,7.79
2022-10-07T17:57:06.399Z,7.97
2022-10-07T17:59:43.453Z,7.77
2022-10-07T18:02:15.642Z,7.88
2022-10-07T18:04:44.868Z,7.80
2022-10-07T18:07:16.928Z,7.79
2022-10-07T18:09:43.882Z,7.79
2022-10-07T18:12:31.884Z,7.73
2022-10-07T18:15:17.839Z,7.70
2022-10-07T18:17:45.541Z,7.68
2022-10-07T18:20:15.542Z,7.53
2022-10-07T18:22:44.367Z,7.59
2022-10-07T18:25:15.101Z,7.56
2022-10-07T18:27:45.511Z,7.44
2022-10-07T18:30:20.754Z,7.25
2022-10-07T18:32:48.063Z,7.28
2022-10-07T18:35:24.187Z,7.37
2022-10-07T18:38:01.621Z,7.23
2022-10-07T18:40:28.709Z,7.17
2022-10-07T18:42:56.710Z,7.30
2022-10-07T18:45:23.802Z,7.21
2022-10-07T18:47:50.995Z,7.32
2022-10-07T18:50:18.276Z,7.34
2022-10-07T18:55:27.629Z,7.26
2022-10-07T18:57:55.470Z,7.26
2022-10-07T19:00:22.590Z,7.32
2022-10-07T19:02:51.299Z,7.41
2022-10-07T19:05:18.389Z,7.33
2022-10-07T19:07:46.125Z,7.30
2022-10-07T19:10:13.236Z,7.41
2022-10-07T19:12:58.979Z,7.51
2022-10-07T19:15:26.256Z,7.64
2022-10-07T19:17:53.217Z,7.66
2022-10-07T19:20:20.484Z,7.77
2022-10-07T19:22:47.577Z,7.76
2022-10-07T19:25:33.328Z,7.76
2022-10-07T19:28:00.757Z,7.76
2022-10-07T19:30:34.204Z,7.73
2022-10-07T19:33:01.264Z,7.68
2022-10-07T19:35:30.179Z,7.55
2022-10-07T19:37:57.125Z,7.56
2022-10-07T19:40:29.513Z,7.64
2022-10-07T19:42:56.495Z,7.60
2022-10-07T19:45:25.972Z,7.44
2022-10-07T19:48:08.356Z,7.35
2022-10-07T19:50:37.684Z,7.32
2022-10-07T19:53:05.329Z,7.27
2022-10-07T19:55:33.590Z,7.16
2022-10-07T19:58:03.544Z,7.16
2022-10-07T20:00:33.372Z,7.12
2022-10-07T20:03:00.353Z,7.05
2022-10-07T20:05:29.218Z,6.99
2022-10-07T20:07:57.281Z,6.86
2022-10-07T20:10:25.731Z,6.97
2022-10-07T20:12:56.684Z,6.98
2022-10-07T20:15:23.803Z,6.87
2022-10-07T20:17:50.877Z,6.82
2022-10-07T20:20:21.186Z,6.76
2022-10-07T20:22:49.530Z,6.72
2022-10-07T20:25:19.127Z,6.60
2022-10-07T20:27:46.457Z,6.74
2022-10-07T20:30:17.838Z,6.70
2022-10-07T20:32:45.640Z,6.77
2022-10-07T20:35:12.931Z,6.66
2022-10-07T20:37:39.883Z,6.67
2022-10-07T20:40:26.166Z,6.61
2022-10-07T20:42:55.646Z,6.56
2022-10-07T20:45:23.187Z,6.51
2022-10-07T20:47:50.108Z,6.46
2022-10-07T20:50:17.110Z,6.46
2022-10-07T20:52:45.406Z,6.54
2022-10-07T20:55:14.370Z,6.59
2022-10-07T20:57:41.929Z,6.51
2022-10-07T21:00:16.332Z,6.46
2022-10-07T21:02:44.656Z,6.39
2022-10-07T21:05:12.153Z,6.35
2022-10-07T21:07:40.475Z,6.32
2022-10-07T21:10:07.603Z,6.33
2022-10-07T21:12:34.663Z,6.42
2022-10-07T21:15:03.389Z,6.35
2022-10-07T21:17:31.296Z,6.36
2022-10-07T21:19:58.302Z,6.32
2022-10-07T21:22:25.784Z,6.41
2022-10-07T21:24:52.751Z,6.46
2022-10-07T21:27:20.116Z,6.48
2022-10-07T21:29:48.809Z,6.50
2022-10-07T21:32:15.812Z,6.47
2022-10-07T21:34:43.768Z,6.40
2022-10-07T21:37:13.509Z,6.30
2022-10-07T21:39:40.421Z,6.30
2022-10-07T21:42:07.410Z,6.29
2022-10-07T21:44:35.763Z,6.23
2022-10-07T21:47:04.929Z,6.24
2022-10-07T21:49:31.901Z,6.28
2022-10-07T21:51:59.119Z,6.25
2022-10-07T21:54:26.349Z,6.27
2022-10-07T21:56:53.274Z,6.29
2022-10-07T21:59:20.985Z,6.31
2022-10-07T22:01:47.933Z,6.35
2022-10-07T22:04:19.217Z,6.31
2022-10-07T22:07:04.783Z,6.23
2022-10-07T22:09:31.929Z,6.26
2022-10-07T22:11:58.864Z,6.25
2022-10-07T22:14:25.828Z,6.21
2022-10-07T22:16:57.324Z,6.21
2022-10-07T22:19:25.304Z,6.27
2022-10-07T22:21:52.386Z,6.34
2022-10-07T22:24:19.287Z,6.31
2022-10-07T22:26:47.372Z,6.28
2022-10-07T22:29:16.323Z,6.24
2022-10-07T22:31:43.703Z,6.24
2022-10-07T22:34:31.004Z,6.27
2022-10-07T22:36:58.300Z,6.23
2022-10-07T22:39:26.376Z,6.16
2022-10-07T22:41:53.791Z,6.17
2022-10-07T22:44:20.810Z,6.13
2022-10-07T22:46:47.821Z,6.06
2022-10-07T22:49:15.278Z,6.12
2022-10-07T22:51:43.192Z,6.10
2022-10-07T22:54:13.915Z,6.15
2022-10-07T22:56:42.102Z,6.10
2022-10-07T22:59:09.279Z,6.15
2022-10-07T23:01:39.949Z,6.12
2022-10-07T23:04:06.911Z,6.04
2022-10-07T23:06:36.515Z,5.99
2022-10-07T23:09:04.092Z,5.93
2022-10-07T23:11:31.362Z,5.90
2022-10-07T23:13:58.558Z,5.88
2022-10-07T23:16:29.624Z,5.80
2022-10-07T23:18:58.295Z,5.76
2022-10-07T23:21:27.834Z,5.77
2022-10-07T23:24:02.876Z,5.76
2022-10-07T23:26:33.593Z,5.67
2022-10-07T23:29:01.059Z,5.62
2022-10-07T23:31:29.450Z,5.61
2022-10-07T23:33:57.342Z,5.62
2022-10-07T23:36:25.565Z,5.56
2022-10-07T23:38:52.701Z,5.62
2022-10-07T23:41:21.953Z,5.68
2022-10-07T23:43:50.605Z,5.65
2022-10-07T23:46:22.042Z,5.59
2022-10-07T23:48:50.121Z,5.57
2022-10-07T23:51:22.643Z,5.53
2022-10-07T23:53:50.314Z,5.55
2022-10-07T23:56:18.743Z,5.45
2022-10-07T23:58:46.143Z,5.48
